Terminal Aerodrome Forecast
Issued by NWS Wichita, KS

Home | Current Version | Previous Version | Text Only | Print | Product List | Glossary On
Versions: 1 2 3 4 5 6 7 8 9 10 11 12 13 14 15 16 17 18 19 20 21 22 23 24
259
FTUS43 KICT 251121
TAFICT
TAF
KICT 251121Z 2512/2612 33018G25KT P6SM -RA OVC009
     FM251500 34016G23KT P6SM VCSH OVC015
     FM251800 34015G22KT P6SM SCT015 BKN025=

USA.gov is the U.S. government's official web portal to all federal, state and local government web resources and services.